Time;durP1;ratioP1;P1;durP2;ratioP2;P2;SDS_P1;SDS_P2;PMS_P1;PMS_P2;Temp;Humidity;BMP_temperature;BMP_pressure;BME280_temperature;BME280_humidity;BME280_pressure;Samples;Min_cycle;Max_cycle;Signal;HPM_P1;HPM_P2
2021/08/13 00:00:17;;;;;;;5.22;3.60;;;21.40;65.00;;;;;;5034636;28;20488;-60
2021/08/13 00:02:43;;;;;;;4.72;3.35;;;21.40;65.10;;;;;;5034206;28;20045;-60
2021/08/13 00:05:10;;;;;;;5.70;4.10;;;21.40;65.20;;;;;;5034663;28;20516;-60
2021/08/13 00:07:36;;;;;;;6.55;3.97;;;21.40;65.50;;;;;;5034443;28;20025;-60
2021/08/13 00:10:03;;;;;;;5.43;3.90;;;21.40;65.50;;;;;;5034375;28;20294;-60
2021/08/13 00:12:28;;;;;;;7.45;3.80;;;21.30;65.50;;;;;;5034368;28;20081;-59
2021/08/13 00:14:57;;;;;;;5.70;3.45;;;21.30;65.50;;;;;;5036878;28;20021;-60
2021/08/13 00:17:24;;;;;;;7.03;3.72;;;21.30;65.40;;;;;;5035108;28;20041;-59
2021/08/13 00:19:49;;;;;;;6.28;3.90;;;21.30;65.70;;;;;;5010941;28;20029;-60
2021/08/13 00:22:15;;;;;;;5.82;4.25;;;21.30;65.70;;;;;;5034165;28;20085;-60
2021/08/13 00:24:41;;;;;;;5.28;3.78;;;21.30;65.80;;;;;;5034122;28;20028;-60
2021/08/13 00:27:07;;;;;;;6.03;3.75;;;21.20;65.80;;;;;;5034357;28;20063;-59
2021/08/13 00:29:34;;;;;;;5.75;3.70;;;21.20;65.70;;;;;;5034179;28;20043;-61
2021/08/13 00:31:59;;;;;;;5.78;3.75;;;21.20;65.80;;;;;;5034222;28;20029;-61
2021/08/13 00:34:25;;;;;;;5.03;3.63;;;21.20;65.90;;;;;;5035303;28;20029;-61
2021/08/13 00:36:51;;;;;;;5.65;3.83;;;21.20;66.60;;;;;;5034088;28;20036;-61
2021/08/13 00:39:16;;;;;;;5.68;3.92;;;21.10;66.10;;;;;;5034052;28;20030;-61
2021/08/13 00:41:42;;;;;;;6.35;4.22;;;21.10;66.40;;;;;;5033906;28;20503;-61
2021/08/13 00:44:08;;;;;;;5.70;4.03;;;21.10;66.40;;;;;;5033789;28;20017;-61
2021/08/13 00:46:33;;;;;;;6.10;4.30;;;21.10;66.20;;;;;;5033821;28;20021;-61
2021/08/13 00:48:59;;;;;;;5.07;3.63;;;21.10;66.50;;;;;;5033806;28;20342;-61
2021/08/13 00:51:24;;;;;;;5.22;3.67;;;21.00;66.50;;;;;;5031534;28;20029;-61
2021/08/13 00:53:50;;;;;;;5.28;3.67;;;21.00;66.60;;;;;;5033737;28;20032;-60
2021/08/13 00:56:16;;;;;;;5.40;4.05;;;21.00;66.50;;;;;;5033617;28;20100;-61
2021/08/13 00:58:43;;;;;;;5.88;4.30;;;21.00;66.50;;;;;;5033646;28;20126;-61
2021/08/13 01:01:10;;;;;;;4.82;3.75;;;21.00;66.30;;;;;;5030985;28;20419;-61
2021/08/13 01:03:38;;;;;;;5.47;3.75;;;21.00;66.40;;;;;;5033295;28;20373;-61
2021/08/13 01:06:05;;;;;;;6.15;4.82;;;21.00;66.30;;;;;;5032697;28;20048;-61
2021/08/13 01:08:31;;;;;;;5.70;4.43;;;21.00;66.50;;;;;;5033539;28;20071;-60
2021/08/13 01:11:12;;;;;;;6.05;4.10;;;20.90;66.50;;;;;;5033577;28;20022;-61
2021/08/13 01:13:58;;;;;;;;;;;20.90;67.20;;;;;;5033815;28;20067;-61
2021/08/13 01:16:26;;;;;;;4.80;3.38;;;20.90;66.30;;;;;;5034037;28;19921;-61
2021/08/13 01:19:01;;;;;;;5.55;3.70;;;20.90;66.30;;;;;;5033198;28;20029;-61
2021/08/13 01:21:33;;;;;;;5.93;3.88;;;20.90;66.50;;;;;;5030882;28;20100;-61
2021/08/13 01:24:04;;;;;;;5.07;3.45;;;20.90;66.50;;;;;;5033158;28;20075;-61
2021/08/13 01:26:32;;;;;;;5.43;4.00;;;20.90;66.70;;;;;;5030713;28;20104;-61
2021/08/13 01:29:10;;;;;;;5.85;4.30;;;20.90;66.90;;;;;;5032765;28;20028;-61
2021/08/13 01:32:03;;;;;;;5.53;3.50;;;20.80;66.70;;;;;;5031386;28;20042;-61
2021/08/13 01:34:30;;;;;;;5.68;4.03;;;20.80;66.50;;;;;;5017735;28;20033;-60
2021/08/13 01:36:58;;;;;;;5.07;3.65;;;20.80;66.70;;;;;;5033025;28;20060;-61
2021/08/13 01:39:32;;;;;;;5.47;3.90;;;20.80;66.50;;;;;;5031558;28;20041;-61
2021/08/13 01:41:58;;;;;;;6.30;4.53;;;20.80;66.90;;;;;;5030866;28;20393;-61
2021/08/13 01:44:25;;;;;;;5.88;4.40;;;20.80;66.90;;;;;;5031030;28;20083;-61
2021/08/13 01:46:52;;;;;;;6.03;3.38;;;20.80;66.80;;;;;;5031552;28;20492;-61
2021/08/13 01:49:19;;;;;;;6.82;3.95;;;20.80;66.60;;;;;;5032260;28;20033;-61
2021/08/13 01:51:47;;;;;;;6.70;3.97;;;20.70;66.70;;;;;;5032589;28;20092;-61
2021/08/13 01:54:13;;;;;;;8.60;3.65;;;20.70;66.60;;;;;;5032148;28;20026;-61
2021/08/13 01:56:39;;;;;;;8.57;4.35;;;20.70;66.60;;;;;;5032704;28;20080;-61
2021/08/13 01:59:05;;;;;;;6.22;3.85;;;20.70;66.60;;;;;;5032648;28;20060;-61
2021/08/13 02:01:31;;;;;;;5.95;3.92;;;20.70;66.90;;;;;;5032608;28;20057;-61
2021/08/13 02:03:58;;;;;;;4.93;3.55;;;20.70;67.70;;;;;;5036214;28;20028;-61
2021/08/13 02:06:25;;;;;;;8.82;4.40;;;20.60;67.20;;;;;;5032155;28;20037;-61
2021/08/13 02:08:52;;;;;;;6.50;3.67;;;20.60;67.20;;;;;;5032639;28;20021;-61
2021/08/13 02:11:18;;;;;;;6.85;4.25;;;20.60;67.10;;;;;;5032115;28;20072;-61
2021/08/13 02:13:44;;;;;;;5.43;3.75;;;20.60;66.90;;;;;;5032507;28;20026;-61
2021/08/13 02:16:13;;;;;;;5.75;3.80;;;20.60;66.90;;;;;;5034335;28;20357;-61
2021/08/13 02:18:46;;;;;;;5.78;3.95;;;20.50;67.00;;;;;;5032715;28;20032;-61
2021/08/13 02:21:14;;;;;;;5.32;3.67;;;20.50;67.50;;;;;;5032454;28;20032;-61
2021/08/13 02:23:40;;;;;;;5.43;3.92;;;20.50;66.80;;;;;;5032445;28;20022;-61
2021/08/13 02:26:06;;;;;;;5.53;4.05;;;20.50;67.10;;;;;;5032165;28;20053;-61
2021/08/13 02:28:32;;;;;;;5.93;4.15;;;20.50;67.00;;;;;;5030321;28;20068;-60
2021/08/13 02:30:57;;;;;;;5.13;3.63;;;20.50;67.00;;;;;;5032229;28;20060;-60
2021/08/13 02:33:23;;;;;;;5.13;4.07;;;20.40;67.00;;;;;;5033859;28;20025;-60
2021/08/13 02:35:51;;;;;;;5.18;4.18;;;20.40;67.10;;;;;;5029601;28;20476;-60
2021/08/13 02:38:22;;;;;;;6.20;4.20;;;20.40;67.10;;;;;;5032438;28;20104;-60
2021/08/13 02:41:01;;;;;;;6.40;4.00;;;20.30;67.30;;;;;;5033840;28;20063;-60
2021/08/13 02:43:38;;;;;;;6.20;4.05;;;20.40;67.60;;;;;;5036011;28;20095;-60
2021/08/13 02:46:06;;;;;;;6.90;4.40;;;20.30;67.70;;;;;;5035947;28;20021;-60
2021/08/13 02:48:35;;;;;;;6.85;4.32;;;20.30;67.70;;;;;;5036139;28;20009;-61
2021/08/13 02:51:03;;;;;;;7.13;4.75;;;20.30;67.60;;;;;;5036268;28;20013;-61
2021/08/13 02:53:30;;;;;;;6.05;4.25;;;20.30;67.70;;;;;;5033315;28;20041;-61
2021/08/13 02:56:05;;;;;;;5.40;3.88;;;20.30;67.90;;;;;;5035994;28;20105;-61
2021/08/13 02:58:38;;;;;;;4.43;3.67;;;20.30;67.50;;;;;;5033419;28;20538;-61
2021/08/13 03:01:05;;;;;;;6.45;4.30;;;20.30;67.90;;;;;;5035369;28;20030;-61
2021/08/13 03:03:31;;;;;;;5.78;4.50;;;20.30;67.80;;;;;;5035894;28;20382;-61
2021/08/13 03:06:00;;;;;;;6.15;4.43;;;20.30;67.90;;;;;;5035615;28;20412;-61
2021/08/13 03:08:26;;;;;;;6.53;4.57;;;20.30;67.90;;;;;;5035564;28;20013;-61
2021/08/13 03:10:52;;;;;;;6.25;4.43;;;20.30;68.00;;;;;;5036143;28;20021;-61
2021/08/13 03:13:22;;;;;;;4.88;3.80;;;20.30;67.90;;;;;;5035652;28;20448;-61
2021/08/13 03:15:48;;;;;;;7.13;4.18;;;20.40;67.70;;;;;;5035011;28;20519;-60
2021/08/13 03:18:14;;;;;;;5.53;4.13;;;20.40;67.70;;;;;;5033327;28;20047;-61
2021/08/13 03:20:40;;;;;;;8.27;4.32;;;20.40;67.70;;;;;;5035440;28;20018;-60
2021/08/13 03:23:07;;;;;;;6.38;4.10;;;20.40;67.70;;;;;;5035365;28;20100;-61
2021/08/13 03:25:33;;;;;;;6.30;4.20;;;20.50;67.90;;;;;;5035270;28;20021;-61
2021/08/13 03:27:59;;;;;;;4.70;3.88;;;20.60;67.90;;;;;;5035321;28;20023;-61
2021/08/13 03:30:25;;;;;;;8.20;4.30;;;20.60;67.70;;;;;;5034977;28;20116;-60
2021/08/13 03:32:53;;;;;;;5.60;3.78;;;20.70;67.70;;;;;;5034862;28;20022;-61
2021/08/13 03:35:18;;;;;;;5.82;4.28;;;20.80;67.50;;;;;;5035245;28;20359;-61
2021/08/13 03:37:44;;;;;;;6.18;3.65;;;20.90;67.60;;;;;;5016843;28;20116;-61
2021/08/13 03:40:10;;;;;;;4.85;3.88;;;21.00;67.20;;;;;;5032315;28;20484;-61
2021/08/13 03:42:36;;;;;;;4.90;3.40;;;21.10;67.00;;;;;;5035011;28;20032;-61
2021/08/13 03:45:02;;;;;;;5.55;4.10;;;21.30;67.00;;;;;;5034948;28;20017;-61
2021/08/13 03:47:27;;;;;;;7.30;4.45;;;21.30;66.70;;;;;;5033620;28;20511;-61
2021/08/13 03:49:53;;;;;;;5.93;3.88;;;21.40;66.70;;;;;;5034498;28;20034;-61
2021/08/13 03:52:19;;;;;;;3.92;3.20;;;21.50;66.90;;;;;;5034756;28;20032;-61
2021/08/13 03:54:46;;;;;;;5.97;3.55;;;21.60;66.80;;;;;;5034814;28;20068;-61
2021/08/13 03:57:11;;;;;;;5.28;3.97;;;21.70;66.50;;;;;;5034829;28;20022;-61
2021/08/13 03:59:37;;;;;;;5.53;3.72;;;21.70;66.40;;;;;;5035081;28;20368;-61
2021/08/13 04:02:03;;;;;;;6.75;3.72;;;21.80;66.50;;;;;;5034297;28;20358;-60
2021/08/13 04:04:28;;;;;;;5.53;3.83;;;22.00;66.90;;;;;;5034871;28;20026;-61
2021/08/13 04:06:54;;;;;;;5.50;3.70;;;22.20;67.20;;;;;;5034482;28;20480;-61
2021/08/13 04:09:20;;;;;;;8.02;3.90;;;22.50;67.30;;;;;;5034171;28;20027;-61
2021/08/13 04:11:45;;;;;;;4.63;3.97;;;22.90;66.90;;;;;;5034502;28;20101;-60
2021/08/13 04:14:11;;;;;;;5.65;3.88;;;23.30;66.00;;;;;;5034463;28;20509;-60
2021/08/13 04:16:37;;;;;;;5.55;4.07;;;23.70;64.50;;;;;;5036830;28;20377;-60
2021/08/13 04:19:02;;;;;;;7.40;4.15;;;23.90;63.20;;;;;;5034365;28;20029;-61
2021/08/13 04:21:28;;;;;;;5.05;4.28;;;24.10;62.20;;;;;;5034288;28;20022;-61
2021/08/13 04:23:54;;;;;;;4.70;3.92;;;24.20;61.50;;;;;;5034018;28;20021;-61
2021/08/13 04:26:19;;;;;;;6.55;3.90;;;24.30;61.00;;;;;;5032695;28;20131;-61
2021/08/13 04:28:45;;;;;;;6.20;4.20;;;24.30;60.90;;;;;;5034180;28;20079;-61
2021/08/13 04:31:10;;;;;;;6.50;4.10;;;24.20;60.50;;;;;;5034060;28;20057;-62
2021/08/13 04:33:36;;;;;;;6.20;4.25;;;24.10;60.50;;;;;;5034304;28;20021;-62
2021/08/13 04:36:02;;;;;;;6.93;5.60;;;24.00;60.50;;;;;;5034112;28;20743;-62
2021/08/13 04:38:27;;;;;;;6.18;4.18;;;23.90;60.50;;;;;;5034357;28;20128;-62
2021/08/13 04:40:53;;;;;;;5.75;4.68;;;23.80;60.90;;;;;;5034050;28;20033;-62
2021/08/13 04:43:19;;;;;;;5.82;4.32;;;23.70;61.10;;;;;;5033022;28;20029;-62
2021/08/13 04:45:44;;;;;;;8.48;4.47;;;23.70;61.20;;;;;;5033841;28;20091;-61
2021/08/13 04:48:10;;;;;;;6.60;4.68;;;23.80;61.50;;;;;;5031344;28;20468;-60
2021/08/13 04:50:36;;;;;;;7.25;4.50;;;24.10;61.20;;;;;;5033865;28;20045;-60
2021/08/13 04:53:02;;;;;;;6.78;4.70;;;24.40;60.90;;;;;;5033774;28;20033;-60
2021/08/13 04:55:27;;;;;;;5.60;4.20;;;24.60;60.50;;;;;;5033993;28;20017;-60
2021/08/13 04:57:54;;;;;;;5.15;3.90;;;24.80;60.30;;;;;;5030650;28;20022;-62
2021/08/13 05:00:21;;;;;;;5.07;3.30;;;25.00;60.00;;;;;;5032987;28;20025;-62
2021/08/13 05:02:47;;;;;;;4.30;3.20;;;25.10;60.50;;;;;;5028398;28;20053;-62
2021/08/13 05:05:13;;;;;;;7.10;3.63;;;25.30;60.80;;;;;;5032669;28;20033;-62
2021/08/13 05:07:39;;;;;;;5.28;3.83;;;25.50;60.60;;;;;;5028017;28;20112;-62
2021/08/13 05:10:09;;;;;;;4.75;3.72;;;25.90;60.70;;;;;;5031842;28;20048;-62
2021/08/13 05:12:35;;;;;;;4.97;3.80;;;26.50;59.60;;;;;;5026025;28;20091;-62
2021/08/13 05:15:02;;;;;;;5.45;3.78;;;26.90;58.60;;;;;;5025271;28;20033;-62
2021/08/13 05:17:27;;;;;;;6.05;3.95;;;27.20;57.50;;;;;;5030560;28;20080;-62
2021/08/13 05:19:53;;;;;;;3.60;3.20;;;27.30;56.80;;;;;;5032425;28;20030;-65
2021/08/13 05:22:19;;;;;;;4.68;3.88;;;27.30;56.50;;;;;;5035302;28;20042;-64
2021/08/13 05:24:44;;;;;;;6.25;4.40;;;27.20;56.40;;;;;;5033379;28;20033;-64
2021/08/13 05:27:10;;;;;;;4.50;3.67;;;27.10;56.50;;;;;;5043037;28;20025;-64
2021/08/13 05:29:36;;;;;;;5.78;3.80;;;26.90;56.40;;;;;;5021542;28;20018;-64
2021/08/13 05:32:02;;;;;;;5.13;3.60;;;26.80;56.80;;;;;;5037496;28;20394;-64
2021/08/13 05:34:27;;;;;;;6.55;3.92;;;26.90;56.70;;;;;;5017296;28;20112;-64
2021/08/13 05:36:54;;;;;;;5.60;3.70;;;27.10;56.20;;;;;;5032940;28;20060;-64
2021/08/13 05:39:20;;;;;;;5.63;3.97;;;27.40;55.60;;;;;;5038636;28;20021;-64
2021/08/13 05:41:46;;;;;;;5.70;3.90;;;27.60;55.50;;;;;;5039181;28;20041;-64
2021/08/13 05:44:12;;;;;;;5.13;3.60;;;27.60;55.40;;;;;;5020941;28;21680;-63
2021/08/13 05:46:38;;;;;;;5.47;3.83;;;27.50;55.40;;;;;;5049891;28;20056;-64
2021/08/13 05:49:04;;;;;;;5.65;4.30;;;27.50;55.50;;;;;;5039558;28;20025;-64
2021/08/13 05:51:30;;;;;;;6.47;3.97;;;27.30;55.70;;;;;;5006165;28;20741;-64
2021/08/13 05:53:55;;;;;;;5.45;3.90;;;27.20;55.80;;;;;;5026382;28;20056;-65
2021/08/13 05:56:21;;;;;;;4.85;3.65;;;27.10;56.20;;;;;;5036333;28;20074;-64
2021/08/13 05:58:47;;;;;;;5.53;4.05;;;26.90;56.20;;;;;;5034714;28;20081;-63
2021/08/13 06:01:12;;;;;;;5.20;3.92;;;26.80;57.30;;;;;;5036958;28;20493;-63
2021/08/13 06:03:38;;;;;;;5.00;3.67;;;26.60;56.80;;;;;;5035566;28;20124;-63
2021/08/13 06:06:04;;;;;;;6.10;3.83;;;26.50;57.00;;;;;;5031781;28;20477;-64
2021/08/13 06:08:29;;;;;;;6.22;4.15;;;26.40;57.20;;;;;;5033181;28;20029;-64
2021/08/13 06:10:55;;;;;;;7.78;4.28;;;26.30;57.30;;;;;;5033507;28;20033;-64
2021/08/13 06:13:21;;;;;;;5.80;4.13;;;26.20;57.60;;;;;;5027146;28;20049;-63
2021/08/13 06:15:47;;;;;;;5.03;3.60;;;26.10;57.80;;;;;;5033730;28;20052;-64
2021/08/13 06:18:13;;;;;;;5.68;4.30;;;26.00;57.90;;;;;;5042111;28;20376;-64
2021/08/13 06:20:39;;;;;;;7.10;4.10;;;26.00;58.20;;;;;;5046584;28;20021;-64
2021/08/13 06:23:04;;;;;;;4.43;3.70;;;25.90;58.20;;;;;;5044062;28;20057;-63
2021/08/13 06:25:30;;;;;;;6.70;4.35;;;25.90;58.40;;;;;;5022458;28;20049;-64
2021/08/13 06:27:56;;;;;;;5.75;4.40;;;25.80;58.70;;;;;;5035683;28;20120;-63
2021/08/13 06:30:23;;;;;;;4.93;3.85;;;25.80;58.90;;;;;;5034859;28;20315;-64
2021/08/13 06:32:49;;;;;;;6.35;4.03;;;25.80;59.00;;;;;;5034884;28;20047;-64
2021/08/13 06:35:15;;;;;;;5.45;4.15;;;25.70;59.10;;;;;;5038363;28;20029;-64
2021/08/13 06:37:52;;;;;;;5.10;4.22;;;25.70;59.20;;;;;;5038226;28;20142;-64
2021/08/13 06:40:19;;;;;;;4.85;3.97;;;25.70;59.30;;;;;;5032360;28;20026;-64
2021/08/13 06:42:45;;;;;;;6.72;4.47;;;25.60;59.60;;;;;;5034421;28;20358;-63
2021/08/13 06:45:14;;;;;;;4.68;3.55;;;25.60;59.70;;;;;;5034560;28;20107;-64
2021/08/13 06:47:40;;;;;;;5.45;3.90;;;25.50;59.80;;;;;;5035270;28;20657;-64
2021/08/13 06:50:07;;;;;;;4.88;3.85;;;25.50;59.90;;;;;;5036180;28;20026;-64
2021/08/13 06:52:33;;;;;;;5.10;3.65;;;25.50;60.20;;;;;;5034046;28;20038;-64
2021/08/13 06:54:58;;;;;;;5.65;4.25;;;25.50;60.20;;;;;;5040199;28;20033;-63
2021/08/13 06:57:24;;;;;;;6.93;4.13;;;25.50;60.30;;;;;;5038769;28;20052;-64
2021/08/13 06:59:50;;;;;;;4.40;3.70;;;25.40;60.10;;;;;;5023723;28;20122;-64
2021/08/13 07:02:16;;;;;;;5.03;4.25;;;25.40;60.10;;;;;;5039740;28;20848;-63
2021/08/13 07:04:42;;;;;;;5.95;3.75;;;25.40;60.00;;;;;;5026800;28;20204;-64
2021/08/13 07:07:08;;;;;;;4.75;3.88;;;25.40;60.00;;;;;;5025111;28;20025;-64
2021/08/13 07:09:34;;;;;;;5.75;3.80;;;25.40;60.00;;;;;;5027111;28;20030;-64
2021/08/13 07:11:59;;;;;;;5.43;3.63;;;25.40;60.00;;;;;;5026030;28;20052;-64
2021/08/13 07:14:25;;;;;;;6.13;3.97;;;25.40;60.10;;;;;;5026846;28;20060;-63
2021/08/13 07:16:51;;;;;;;5.45;4.10;;;25.40;60.50;;;;;;5023697;28;20432;-63
2021/08/13 07:19:16;;;;;;;4.75;3.67;;;25.40;60.50;;;;;;5023931;28;20030;-63
2021/08/13 07:21:42;;;;;;;4.60;4.07;;;25.40;60.30;;;;;;5003685;28;20136;-63
2021/08/13 07:24:08;;;;;;;4.15;3.72;;;25.40;60.20;;;;;;5019298;28;20037;-63
2021/08/13 07:26:33;;;;;;;7.03;4.00;;;25.40;60.30;;;;;;5023155;28;20038;-63
2021/08/13 07:28:59;;;;;;;9.60;5.90;;;25.30;60.20;;;;;;5020427;28;20021;-62
2021/08/13 07:31:25;;;;;;;5.80;4.10;;;25.30;60.30;;;;;;5019292;28;20084;-63
2021/08/13 07:33:51;;;;;;;4.95;3.63;;;25.30;60.10;;;;;;5024849;28;20037;-63
2021/08/13 07:36:17;;;;;;;5.57;3.83;;;25.30;60.20;;;;;;5026538;28;20081;-62
2021/08/13 07:38:43;;;;;;;4.85;3.88;;;25.30;59.90;;;;;;5021478;28;20447;-62
2021/08/13 07:41:10;;;;;;;5.00;3.90;;;25.20;59.90;;;;;;5024294;28;20104;-61
2021/08/13 07:43:37;;;;;;;4.95;4.25;;;25.20;60.00;;;;;;5021240;28;20044;-63
2021/08/13 07:46:04;;;;;;;5.88;4.30;;;25.20;60.30;;;;;;5023272;28;20485;-62
2021/08/13 07:48:30;;;;;;;5.63;3.75;;;25.30;60.30;;;;;;5021373;28;20071;-61
2021/08/13 07:50:56;;;;;;;4.82;3.50;;;25.20;60.00;;;;;;5025115;28;20033;-61
2021/08/13 07:53:22;;;;;;;4.40;3.42;;;25.20;59.90;;;;;;5019536;28;20091;-62
2021/08/13 07:55:48;;;;;;;3.63;3.30;;;25.20;59.90;;;;;;5022138;28;20061;-62
2021/08/13 07:58:13;;;;;;;4.30;3.63;;;25.20;60.00;;;;;;5021091;28;20033;-62
2021/08/13 08:00:39;;;;;;;4.75;3.30;;;25.20;59.80;;;;;;5017583;28;20026;-63
2021/08/13 08:03:06;;;;;;;4.18;3.45;;;25.20;59.70;;;;;;5022013;28;20059;-62
2021/08/13 08:05:31;;;;;;;3.67;2.88;;;25.20;59.60;;;;;;5019276;28;20053;-63
2021/08/13 08:07:57;;;;;;;3.83;3.13;;;25.20;59.60;;;;;;5022945;28;20021;-62
2021/08/13 08:10:23;;;;;;;3.30;2.60;;;25.10;59.20;;;;;;5019837;28;20036;-63
2021/08/13 08:12:48;;;;;;;4.75;3.20;;;25.10;59.20;;;;;;5017246;28;22642;-62
2021/08/13 08:15:15;;;;;;;3.47;2.97;;;25.10;59.20;;;;;;5016134;28;20111;-62
2021/08/13 08:17:41;;;;;;;3.28;2.70;;;25.10;59.00;;;;;;5001886;28;20041;-63
2021/08/13 08:20:07;;;;;;;3.75;3.00;;;25.00;58.60;;;;;;5012846;28;20029;-62
2021/08/13 08:22:33;;;;;;;3.80;3.00;;;25.10;58.70;;;;;;5018247;28;20489;-62
2021/08/13 08:24:58;;;;;;;3.80;2.65;;;25.00;58.40;;;;;;5022108;28;20083;-62
2021/08/13 08:27:24;;;;;;;4.95;3.33;;;25.00;59.20;;;;;;5021545;28;20022;-62
2021/08/13 08:29:50;;;;;;;3.60;2.75;;;25.00;58.50;;;;;;5021303;28;20037;-62
2021/08/13 08:32:15;;;;;;;3.40;2.78;;;24.90;58.30;;;;;;5016805;28;20119;-63
2021/08/13 08:34:41;;;;;;;5.03;2.75;;;24.90;58.10;;;;;;5019427;28;21265;-62
2021/08/13 08:37:11;;;;;;;3.38;3.00;;;24.90;58.00;;;;;;5016464;28;20040;-62
2021/08/13 08:39:38;;;;;;;5.43;3.28;;;24.90;57.80;;;;;;5018510;28;20572;-61
2021/08/13 08:42:11;;;;;;;3.90;3.03;;;24.80;57.70;;;;;;5020958;28;20025;-62
2021/08/13 08:44:37;;;;;;;4.05;3.30;;;24.80;57.70;;;;;;5016383;28;20060;-61
2021/08/13 08:47:03;;;;;;;4.60;3.25;;;24.80;57.70;;;;;;5017781;28;20549;-62
2021/08/13 08:49:30;;;;;;;3.83;2.97;;;24.70;57.80;;;;;;5020806;28;20029;-63
2021/08/13 08:51:56;;;;;;;6.05;3.60;;;24.70;57.90;;;;;;5013231;28;20029;-62
2021/08/13 08:54:24;;;;;;;5.05;3.60;;;24.70;57.60;;;;;;5013436;28;20029;-63
2021/08/13 08:56:51;;;;;;;5.30;3.33;;;24.70;57.40;;;;;;5015850;28;20041;-63
2021/08/13 08:59:18;;;;;;;4.40;3.15;;;24.60;57.80;;;;;;5014608;28;20029;-62
2021/08/13 09:01:44;;;;;;;5.28;3.42;;;24.60;57.90;;;;;;5018468;28;20466;-63
2021/08/13 09:04:10;;;;;;;3.92;3.13;;;24.60;58.10;;;;;;5017213;28;20064;-61
2021/08/13 09:06:40;;;;;;;4.13;3.13;;;24.50;57.90;;;;;;5021163;28;20117;-62
2021/08/13 09:09:07;;;;;;;4.45;3.00;;;24.50;57.90;;;;;;5020540;28;20508;-62
2021/08/13 09:11:34;;;;;;;4.18;3.20;;;24.50;57.80;;;;;;5018491;28;20079;-62
2021/08/13 09:14:03;;;;;;;4.18;3.00;;;24.50;57.70;;;;;;5020274;28;20017;-62
2021/08/13 09:16:28;;;;;;;3.58;2.75;;;24.50;57.70;;;;;;5021883;28;20029;-62
2021/08/13 09:19:03;;;;;;;5.45;2.95;;;24.40;57.60;;;;;;5015386;28;20117;-60
2021/08/13 09:21:30;;;;;;;2.88;2.55;;;24.40;57.30;;;;;;5032783;28;20142;-63
2021/08/13 09:23:59;;;;;;;3.55;2.72;;;24.40;56.90;;;;;;5015029;28;20048;-64
2021/08/13 09:26:25;;;;;;;3.03;2.70;;;24.40;56.90;;;;;;5018694;28;20711;-63
2021/08/13 09:28:53;;;;;;;4.95;2.53;;;24.30;57.00;;;;;;5016149;28;20113;-63
2021/08/13 09:31:25;;;;;;;3.88;2.70;;;24.30;56.70;;;;;;5017706;28;20050;-61
2021/08/13 09:33:53;;;;;;;3.00;2.60;;;24.30;56.70;;;;;;5017674;28;20516;-63
2021/08/13 09:36:21;;;;;;;4.18;2.85;;;24.30;56.70;;;;;;5019745;28;20036;-63
2021/08/13 09:39:00;;;;;;;4.28;3.35;;;24.30;57.10;;;;;;5021151;28;22494;-63
2021/08/13 09:41:26;;;;;;;3.42;2.65;;;24.30;57.20;;;;;;5018771;28;20021;-64
2021/08/13 09:44:02;;;;;;;3.13;2.65;;;24.30;57.40;;;;;;5018327;28;20099;-63
2021/08/13 09:46:31;;;;;;;3.97;2.85;;;24.30;57.50;;;;;;5020667;28;20083;-63
2021/08/13 09:49:13;;;;;;;3.58;2.95;;;24.30;57.20;;;;;;5021394;28;20029;-63
2021/08/13 09:51:39;;;;;;;5.05;2.92;;;24.30;57.50;;;;;;5023521;28;20025;-63
2021/08/13 09:54:07;;;;;;;3.97;3.20;;;24.30;57.30;;;;;;5023550;28;20020;-64
2021/08/13 09:56:35;;;;;;;3.72;2.67;;;24.30;57.00;;;;;;5021959;28;20350;-63
2021/08/13 09:59:20;;;;;;;3.75;2.95;;;24.30;57.20;;;;;;5018542;28;20033;-63
2021/08/13 10:01:51;;;;;;;4.43;2.80;;;24.40;57.20;;;;;;5023699;28;20037;-63
2021/08/13 10:04:18;;;;;;;3.45;2.70;;;24.30;57.00;;;;;;5015282;28;20036;-64
2021/08/13 10:06:45;;;;;;;3.28;2.53;;;24.30;57.00;;;;;;5020085;28;20071;-64
2021/08/13 10:09:25;;;;;;;3.50;2.40;;;24.40;57.10;;;;;;5016244;28;20041;-63
2021/08/13 10:12:01;;;;;;;3.45;2.88;;;24.40;56.70;;;;;;5020949;28;20042;-64
2021/08/13 10:14:56;;;;;;;3.03;2.42;;;24.30;56.90;;;;;;5023246;28;20030;-63
2021/08/13 10:17:22;;;;;;;3.00;2.50;;;24.30;56.70;;;;;;5020270;28;20091;-63
2021/08/13 10:19:50;;;;;;;3.47;2.75;;;24.30;56.90;;;;;;5021101;28;20041;-64
2021/08/13 10:22:20;;;;;;;5.13;2.90;;;24.30;57.20;;;;;;5023197;28;20132;-64
2021/08/13 10:24:47;;;;;;;5.55;2.80;;;24.30;57.00;;;;;;5020239;28;20041;-64
2021/08/13 10:27:15;;;;;;;3.35;2.67;;;24.30;57.60;;;;;;5021080;28;20041;-63
2021/08/13 10:29:43;;;;;;;4.00;2.88;;;24.40;56.90;;;;;;5024087;28;20469;-63
2021/08/13 10:32:09;;;;;;;3.75;2.95;;;24.40;57.30;;;;;;5026075;28;20087;-64
2021/08/13 10:34:35;;;;;;;4.00;2.65;;;24.40;57.30;;;;;;5022639;28;20033;-64
2021/08/13 10:37:12;;;;;;;2.75;2.50;;;24.40;57.10;;;;;;5025959;28;20764;-63
2021/08/13 10:39:41;;;;;;;5.22;3.00;;;24.40;57.50;;;;;;5020354;28;20044;-63
2021/08/13 10:42:13;;;;;;;3.05;2.42;;;24.40;57.10;;;;;;5013095;28;20484;-63
2021/08/13 10:44:48;;;;;;;4.03;2.67;;;24.40;57.00;;;;;;5021236;28;20040;-63
2021/08/13 10:47:19;;;;;;;3.30;2.78;;;24.40;57.10;;;;;;5020335;28;20692;-63
2021/08/13 10:49:46;;;;;;;3.38;2.72;;;24.40;57.50;;;;;;5004542;28;20022;-63
2021/08/13 10:52:12;;;;;;;3.92;2.60;;;24.40;57.90;;;;;;5017762;28;20100;-64
2021/08/13 10:54:43;;;;;;;3.42;2.60;;;24.40;57.80;;;;;;5013437;28;20129;-63
2021/08/13 10:57:13;;;;;;;3.08;2.58;;;24.40;57.90;;;;;;5017740;28;20068;-64
2021/08/13 10:59:42;;;;;;;4.10;2.88;;;24.40;58.00;;;;;;5018004;28;20037;-64
2021/08/13 11:02:11;;;;;;;3.55;2.80;;;24.40;57.80;;;;;;5022490;28;20060;-63
2021/08/13 11:04:42;;;;;;;3.47;2.38;;;24.40;57.60;;;;;;5023881;28;20030;-63
2021/08/13 11:07:08;;;;;;;3.25;2.50;;;24.50;57.40;;;;;;5020210;28;20033;-63
2021/08/13 11:09:38;;;;;;;4.07;2.78;;;24.50;57.60;;;;;;5021995;28;20145;-63
2021/08/13 11:12:10;;;;;;;2.50;2.28;;;24.50;57.90;;;;;;5025201;28;20029;-63
2021/08/13 11:14:49;;;;;;;2.70;2.50;;;24.50;57.60;;;;;;5030735;28;20021;-63
2021/08/13 11:17:42;;;;;;;4.13;2.60;;;24.50;57.70;;;;;;5023970;28;20377;-63
2021/08/13 11:20:13;;;;;;;4.18;2.45;;;24.50;57.70;;;;;;5021252;28;20065;-64
2021/08/13 11:22:40;;;;;;;;;;;24.50;57.50;;;;;;5038907;28;20404;-63
2021/08/13 11:25:08;;;;;;;3.38;2.40;;;24.50;57.40;;;;;;5022236;28;19912;-65
2021/08/13 11:27:34;;;;;;;3.63;2.67;;;24.50;57.40;;;;;;5026604;28;20724;-63
2021/08/13 11:30:00;;;;;;;2.67;2.28;;;24.50;57.30;;;;;;5020982;28;20436;-65
2021/08/13 11:32:32;;;;;;;5.22;2.70;;;24.50;57.50;;;;;;5026355;28;20038;-63
2021/08/13 11:35:10;;;;;;;3.28;2.60;;;24.50;57.30;;;;;;5028024;28;20120;-62
2021/08/13 11:37:44;;;;;;;2.45;2.22;;;24.50;57.70;;;;;;5025441;28;20029;-61
2021/08/13 11:40:13;;;;;;;2.45;2.25;;;24.50;57.30;;;;;;5030200;28;20029;-63
2021/08/13 11:42:56;;;;;;;4.05;2.80;;;24.50;57.20;;;;;;5025864;28;20029;-63
2021/08/13 11:45:34;;;;;;;2.50;2.30;;;24.50;57.20;;;;;;5024625;28;20034;-63
2021/08/13 11:48:03;;;;;;;2.67;2.45;;;24.60;57.30;;;;;;5029428;28;20484;-66
2021/08/13 11:50:29;;;;;;;2.83;2.45;;;24.60;57.90;;;;;;5015780;28;20044;-67
2021/08/13 11:52:55;;;;;;;3.03;2.65;;;24.60;58.10;;;;;;5037335;28;20034;-66
2021/08/13 11:55:27;;;;;;;3.10;2.30;;;24.80;58.00;;;;;;5015549;28;20051;-66
2021/08/13 11:57:55;;;;;;;3.35;2.63;;;24.90;58.00;;;;;;5032671;28;20025;-66
2021/08/13 12:00:23;;;;;;;3.28;2.47;;;25.00;57.70;;;;;;5029995;28;20500;-65
2021/08/13 12:02:57;;;;;;;2.88;2.38;;;25.10;57.50;;;;;;5030675;28;20092;-66
2021/08/13 12:05:23;;;;;;;2.88;2.42;;;25.20;57.30;;;;;;5029989;28;20033;-66
2021/08/13 12:08:00;;;;;;;2.58;2.38;;;25.30;57.20;;;;;;5030906;28;20401;-65
2021/08/13 12:10:27;;;;;;;2.40;2.20;;;25.40;57.10;;;;;;5037801;28;20502;-65
2021/08/13 12:12:53;;;;;;;2.67;2.33;;;25.40;56.90;;;;;;5033561;28;20057;-64
2021/08/13 12:15:34;;;;;;;3.05;2.40;;;25.50;56.90;;;;;;5033938;28;20029;-65
2021/08/13 12:18:01;;;;;;;2.85;2.15;;;25.50;56.80;;;;;;5032324;28;20615;-65
2021/08/13 12:20:27;;;;;;;2.75;2.30;;;25.60;56.80;;;;;;5031545;28;20030;-65
2021/08/13 12:23:01;;;;;;;2.83;2.47;;;25.70;56.80;;;;;;5036832;28;20117;-65
2021/08/13 12:25:32;;;;;;;2.70;2.50;;;25.70;56.70;;;;;;5035160;28;20072;-65
2021/08/13 12:27:58;;;;;;;3.58;2.28;;;25.70;56.50;;;;;;5038777;28;20081;-64
2021/08/13 12:30:23;;;;;;;4.07;2.13;;;25.80;56.40;;;;;;5038901;28;20412;-65
2021/08/13 12:32:53;;;;;;;2.67;2.30;;;25.80;56.30;;;;;;5031657;28;20382;-64
2021/08/13 12:35:21;;;;;;;2.73;2.07;;;25.80;56.30;;;;;;5036479;28;20104;-65
2021/08/13 12:37:47;;;;;;;3.05;2.50;;;25.80;56.10;;;;;;5040225;28;20027;-63
2021/08/13 12:40:14;;;;;;;2.20;2.00;;;25.90;56.20;;;;;;5039162;28;20079;-64
2021/08/13 12:42:43;;;;;;;2.38;1.83;;;25.90;56.00;;;;;;5035480;28;20032;-65
2021/08/13 12:45:12;;;;;;;3.70;2.45;;;25.90;56.00;;;;;;5035037;28;20060;-66
2021/08/13 12:47:48;;;;;;;2.92;2.20;;;26.00;55.90;;;;;;5035008;28;20033;-65
2021/08/13 12:50:22;;;;;;;4.03;2.60;;;26.00;55.70;;;;;;5033159;28;20017;-65